ADDS METAR Data INFO
IDs: Format: Raw Decoded Include TAF

Data at: 1439 UTC 22 Feb 2018

KFFA 221415Z AUTO 24004KT 7SM OVC004 A3049 RMK AO2
KFFA 221355Z AUTO 24003KT 1 3/4SM BR OVC001 A3049 RMK AO2
KFFA 221335Z AUTO 00000KT 1/4SM FG OVC001 A3048 RMK AO2
KFFA 221315Z AUTO 00000KT 1/4SM FG OVC001 A3048 RMK AO2
KFFA 221255Z AUTO 00000KT 1/2SM FG OVC001 A3047 RMK AO2
KFFA 221235Z AUTO 22003KT 1/2SM FG OVC001 A3047 RMK AO2
KFFA 221215Z AUTO 00000KT 1/2SM FG OVC001 A3047 RMK AO2
KFFA 221155Z AUTO 00000KT 3/4SM BR OVC001 A3046 RMK AO2
KFFA 221135Z AUTO 21003KT 3/4SM BR OVC001 A3046 RMK AO2
KFFA 221115Z AUTO 00000KT 3/4SM BR OVC001 A3045 RMK AO2
KFFA 221055Z AUTO 00000KT 3/4SM BR OVC001 A3045 RMK AO2
KFFA 221035Z AUTO 20003KT 1SM BR OVC001 A3045 RMK AO2
KFFA 221015Z AUTO 00000KT 2SM BR OVC001 A3045 RMK AO2
KFFA 220955Z AUTO 00000KT 4SM HZ BKN001 BKN010 A3045 RMK AO2
KFFA 220935Z AUTO 00000KT 7SM CLR A3044 RMK AO2
KFFA 220915Z AUTO 00000KT 5SM HZ SCT001 SCT010 A3045 RMK AO2
KFFA 220855Z AUTO 00000KT 3SM BR BKN001 OVC010 A3044 RMK AO2
KFFA 220835Z AUTO 00000KT 5SM HZ SCT001 A3044 RMK AO2
KFFA 220815Z AUTO 00000KT 5SM HZ CLR A3044 RMK AO2
KFFA 220755Z AUTO 00000KT 7SM CLR A3044 RMK AO2
KFFA 220735Z AUTO 20003KT 7SM CLR A3044 RMK AO2
KFFA 220715Z AUTO 00000KT 10SM CLR A3044 RMK AO2
KFFA 220655Z AUTO 00000KT 10SM CLR A3043 RMK AO2
KFFA 220635Z AUTO 00000KT 7SM CLR A3044 RMK AO2
KFFA 220615Z AUTO 00000KT 10SM CLR A3044 RMK AO2
KFFA 220555Z AUTO 00000KT 10SM CLR A3045 RMK AO2
KFFA 220535Z AUTO 00000KT 10SM CLR A3045 RMK AO2
KFFA 220515Z AUTO 00000KT 10SM CLR A3045 RMK AO2
KFFA 220455Z AUTO 00000KT 10SM CLR A3045 RMK AO2
KFFA 220435Z AUTO 00000KT 10SM CLR A3044 RMK AO2
KFFA 220415Z AUTO 00000KT 10SM CLR A3044 RMK AO2
KFFA 220355Z AUTO 00000KT 10SM CLR A3044 RMK AO2
KFFA 220035Z AUTO 19004KT 10SM CLR 18/18 A3042 RMK AO2 T01770177
KFFA 220015Z AUTO 00000KT 10SM CLR 18/18 A3041 RMK AO2 T01810181
KFFA 212355Z AUTO 00000KT 10SM CLR 19/18 A3042 RMK AO2 T01880183 10247 21105
KFFA 212335Z AUTO 00000KT 10SM CLR 19/18 A3041 RMK AO2 T01930175
KFFA 212315Z AUTO 20005KT 10SM CLR 20/17 A3041 RMK AO2 T01960167
KFFA 212255Z AUTO 20004KT 10SM CLR 20/16 A3041 RMK AO2 T02000160
KFFA 212235Z AUTO 19003KT 10SM CLR 21/16 A3041 RMK AO2 T02050160
KFFA 212215Z AUTO 19004KT 10SM CLR 21/16 A3040 RMK AO2 T02110163
KFFA 212155Z AUTO 19004KT 10SM CLR 22/17 A3040 RMK AO2 T02150165
KFFA 212135Z AUTO 19004KT 10SM CLR 22/17 A3040 RMK AO2 T02180165
KFFA 212115Z AUTO 19006KT 10SM CLR 22/17 A3039 RMK AO2 T02200165
KFFA 212055Z AUTO 20006KT 10SM SCT041 22/17 A3039 RMK AO2 T02220166
KFFA 212035Z AUTO 21004KT 10SM SCT041 23/17 A3039 RMK AO2 T02260170
KFFA 212015Z AUTO 20003KT 10SM SCT043 23/17 A3039 RMK AO2 T02260168
KFFA 211955Z AUTO 00000KT 10SM SCT043 23/17 A3040 RMK AO2 T02340167
KFFA 211935Z AUTO 00000KT 10SM SCT043 24/16 A3041 RMK AO2 T02380163
KFFA 211915Z AUTO 00000KT 10SM SCT041 23/17 A3041 RMK AO2 T02280169
KFFA 211855Z AUTO 00000KT 10SM SCT041 22/17 A3041 RMK AO2 T02210172
KFFA 211835Z AUTO 00000KT 10SM SCT039 22/17 A3042 RMK AO2 T02190172
KFFA 211815Z AUTO 31006KT 10SM SCT037 22/17 A3043 RMK AO2 T02190168
KFFA 211755Z AUTO 29005KT 10SM CLR 22/16 A3043 RMK AO2 T02180163
KFFA 211735Z AUTO 00000KT 10SM CLR 24/16 A3044 RMK AO2 T02380158
KFFA 211715Z AUTO 23010G14KT 10SM CLR 24/16 A3045 RMK AO2 T02400159
KFFA 211655Z AUTO 23006G14KT 10SM CLR 24/17 A3045 RMK AO2 T02360167
KFFA 211635Z AUTO 23005KT 180V260 10SM SCT041 24/18 A3046 RMK AO2 T02350177
KFFA 211615Z AUTO 23006KT 10SM SCT029 SCT039 23/19 A3047 RMK AO2 T02300192
KFFA 211555Z AUTO 22005KT 10SM SCT028 SCT037 23/21 A3048 RMK AO2 T02250206
KFFA 211535Z AUTO 23005KT 10SM SCT026 SCT033 A3048 RMK AO2
KFFA 211515Z AUTO 00000KT 10SM SCT021 SCT026 SCT031 A3048 RMK AO2
KFFA 211455Z AUTO 21006KT 10SM SCT021 SCT026 SCT031 A3048 RMK AO2
KFFA 211435Z AUTO 00000KT 10SM CLR A3048 RMK AO2
KFFA 211415Z AUTO 22004KT 10SM CLR A3049 RMK AO2
KFFA 211355Z AUTO 00000KT 7SM CLR A3049 RMK AO2
KFFA 211335Z AUTO 22004KT 7SM CLR A3048 RMK AO2
KFFA 211315Z AUTO 00000KT 7SM CLR A3048 RMK AO2
KFFA 211255Z AUTO 00000KT 4SM HZ CLR A3048 RMK AO2
KFFA 211235Z AUTO 00000KT 4SM HZ SCT001 A3047 RMK AO2
KFFA 210735Z AUTO 00000KT 1SM BR OVC002 A3045 RMK AO2
KFFA 210715Z AUTO 00000KT 1SM BR OVC002 A3046 RMK AO2
KFFA 210655Z AUTO 00000KT 1SM BR OVC002 A3046 RMK AO2
KFFA 210635Z AUTO 00000KT 3SM BR OVC002 A3046 RMK AO2
KFFA 210615Z AUTO 00000KT 5SM HZ BKN002 BKN018 A3047 RMK AO2
KFFA 210555Z AUTO 00000KT 5SM HZ SCT002 A3047 RMK AO2